sensor_id;sensor_type;location;lat;lon;timestamp;P1;durP1;ratioP1;P2;durP2;ratioP2
21162;SDS011;10739;52.198;20.908;2023-06-14T00:01:07;15.25;;;9.38;;
21162;SDS011;10739;52.198;20.908;2023-06-14T00:03:34;13.80;;;9.30;;
21162;SDS011;10739;52.198;20.908;2023-06-14T00:06:01;15.18;;;9.65;;
21162;SDS011;10739;52.198;20.908;2023-06-14T00:08:27;13.68;;;9.70;;
21162;SDS011;10739;52.198;20.908;2023-06-14T00:10:53;10.82;;;9.10;;
21162;SDS011;10739;52.198;20.908;2023-06-14T00:13:19;11.98;;;9.00;;
21162;SDS011;10739;52.198;20.908;2023-06-14T00:15:46;12.85;;;8.90;;
21162;SDS011;10739;52.198;20.908;2023-06-14T00:18:12;10.00;;;8.77;;
21162;SDS011;10739;52.198;20.908;2023-06-14T00:20:40;14.50;;;9.23;;
21162;SDS011;10739;52.198;20.908;2023-06-14T00:23:07;14.48;;;8.75;;
21162;SDS011;10739;52.198;20.908;2023-06-14T00:25:33;11.68;;;8.77;;
21162;SDS011;10739;52.198;20.908;2023-06-14T00:28:00;12.88;;;8.55;;
21162;SDS011;10739;52.198;20.908;2023-06-14T00:30:28;14.70;;;8.25;;
21162;SDS011;10739;52.198;20.908;2023-06-14T00:32:56;14.82;;;9.27;;
21162;SDS011;10739;52.198;20.908;2023-06-14T00:35:23;18.23;;;9.68;;
21162;SDS011;10739;52.198;20.908;2023-06-14T00:37:49;11.50;;;8.38;;
21162;SDS011;10739;52.198;20.908;2023-06-14T00:40:15;13.18;;;8.93;;
21162;SDS011;10739;52.198;20.908;2023-06-14T00:42:42;10.40;;;8.60;;
21162;SDS011;10739;52.198;20.908;2023-06-14T00:45:08;12.80;;;8.52;;
21162;SDS011;10739;52.198;20.908;2023-06-14T00:47:35;13.57;;;8.90;;
21162;SDS011;10739;52.198;20.908;2023-06-14T00:50:06;16.25;;;8.50;;
21162;SDS011;10739;52.198;20.908;2023-06-14T00:52:34;11.60;;;8.75;;
21162;SDS011;10739;52.198;20.908;2023-06-14T00:55:01;11.35;;;8.70;;
21162;SDS011;10739;52.198;20.908;2023-06-14T00:57:28;10.75;;;8.88;;
21162;SDS011;10739;52.198;20.908;2023-06-14T00:59:55;11.98;;;9.15;;
21162;SDS011;10739;52.198;20.908;2023-06-14T01:02:21;14.73;;;8.65;;
21162;SDS011;10739;52.198;20.908;2023-06-14T01:04:49;15.35;;;8.38;;
21162;SDS011;10739;52.198;20.908;2023-06-14T01:10:40;12.98;;;8.63;;
21162;SDS011;10739;52.198;20.908;2023-06-14T01:13:43;9.90;;;8.02;;
21162;SDS011;10739;52.198;20.908;2023-06-14T01:16:12;14.45;;;8.90;;
21162;SDS011;10739;52.198;20.908;2023-06-14T01:18:39;12.70;;;9.30;;
21162;SDS011;10739;52.198;20.908;2023-06-14T01:21:19;11.05;;;8.80;;
21162;SDS011;10739;52.198;20.908;2023-06-14T01:23:47;10.23;;;7.43;;
21162;SDS011;10739;52.198;20.908;2023-06-14T01:26:21;13.07;;;8.18;;
21162;SDS011;10739;52.198;20.908;2023-06-14T01:28:48;9.00;;;8.10;;
21162;SDS011;10739;52.198;20.908;2023-06-14T01:31:19;11.13;;;7.80;;
21162;SDS011;10739;52.198;20.908;2023-06-14T01:33:48;12.02;;;8.57;;
21162;SDS011;10739;52.198;20.908;2023-06-14T01:36:17;9.30;;;8.10;;
21162;SDS011;10739;52.198;20.908;2023-06-14T01:38:46;9.57;;;7.90;;
21162;SDS011;10739;52.198;20.908;2023-06-14T01:41:15;8.95;;;8.02;;
21162;SDS011;10739;52.198;20.908;2023-06-14T01:43:45;9.45;;;8.45;;
21162;SDS011;10739;52.198;20.908;2023-06-14T01:46:14;11.00;;;8.90;;
21162;SDS011;10739;52.198;20.908;2023-06-14T01:48:41;9.52;;;8.52;;
21162;SDS011;10739;52.198;20.908;2023-06-14T01:51:08;13.68;;;8.93;;
21162;SDS011;10739;52.198;20.908;2023-06-14T01:53:35;10.68;;;8.52;;
21162;SDS011;10739;52.198;20.908;2023-06-14T01:56:01;9.75;;;8.65;;
21162;SDS011;10739;52.198;20.908;2023-06-14T01:58:28;12.95;;;8.57;;
21162;SDS011;10739;52.198;20.908;2023-06-14T02:00:54;13.10;;;9.45;;
21162;SDS011;10739;52.198;20.908;2023-06-14T02:03:21;12.07;;;9.45;;
21162;SDS011;10739;52.198;20.908;2023-06-14T02:05:48;12.32;;;8.77;;
21162;SDS011;10739;52.198;20.908;2023-06-14T02:08:15;10.10;;;8.95;;
21162;SDS011;10739;52.198;20.908;2023-06-14T02:10:41;12.63;;;8.77;;
21162;SDS011;10739;52.198;20.908;2023-06-14T02:13:07;10.40;;;9.10;;
21162;SDS011;10739;52.198;20.908;2023-06-14T02:15:34;11.02;;;8.32;;
21162;SDS011;10739;52.198;20.908;2023-06-14T02:18:03;15.23;;;9.15;;
21162;SDS011;10739;52.198;20.908;2023-06-14T02:20:30;13.32;;;9.65;;
21162;SDS011;10739;52.198;20.908;2023-06-14T02:22:56;12.80;;;9.13;;
21162;SDS011;10739;52.198;20.908;2023-06-14T02:25:23;14.57;;;8.98;;
21162;SDS011;10739;52.198;20.908;2023-06-14T02:27:50;12.57;;;9.27;;
21162;SDS011;10739;52.198;20.908;2023-06-14T02:30:16;16.92;;;9.25;;
21162;SDS011;10739;52.198;20.908;2023-06-14T02:32:42;14.18;;;9.30;;
21162;SDS011;10739;52.198;20.908;2023-06-14T02:35:09;12.80;;;9.55;;
21162;SDS011;10739;52.198;20.908;2023-06-14T02:37:35;11.07;;;9.30;;
21162;SDS011;10739;52.198;20.908;2023-06-14T02:40:02;14.25;;;10.13;;
21162;SDS011;10739;52.198;20.908;2023-06-14T02:42:29;13.38;;;9.60;;
21162;SDS011;10739;52.198;20.908;2023-06-14T02:44:55;11.50;;;9.15;;
21162;SDS011;10739;52.198;20.908;2023-06-14T02:47:21;9.65;;;8.63;;
21162;SDS011;10739;52.198;20.908;2023-06-14T02:49:48;16.70;;;9.20;;
21162;SDS011;10739;52.198;20.908;2023-06-14T02:52:14;9.95;;;8.93;;
21162;SDS011;10739;52.198;20.908;2023-06-14T02:54:41;12.13;;;9.05;;
21162;SDS011;10739;52.198;20.908;2023-06-14T02:57:08;11.13;;;8.50;;
21162;SDS011;10739;52.198;20.908;2023-06-14T02:59:34;10.73;;;8.45;;
21162;SDS011;10739;52.198;20.908;2023-06-14T03:02:00;10.30;;;8.82;;
21162;SDS011;10739;52.198;20.908;2023-06-14T03:04:27;12.88;;;9.13;;
21162;SDS011;10739;52.198;20.908;2023-06-14T03:06:54;12.55;;;8.82;;
21162;SDS011;10739;52.198;20.908;2023-06-14T03:09:21;12.20;;;9.35;;
21162;SDS011;10739;52.198;20.908;2023-06-14T03:11:48;13.55;;;8.77;;
21162;SDS011;10739;52.198;20.908;2023-06-14T03:14:14;13.68;;;9.52;;
21162;SDS011;10739;52.198;20.908;2023-06-14T03:16:42;12.35;;;9.20;;
21162;SDS011;10739;52.198;20.908;2023-06-14T03:19:09;11.05;;;9.10;;
21162;SDS011;10739;52.198;20.908;2023-06-14T03:21:36;10.57;;;8.90;;
21162;SDS011;10739;52.198;20.908;2023-06-14T03:24:04;13.57;;;9.05;;
21162;SDS011;10739;52.198;20.908;2023-06-14T03:26:30;13.23;;;8.65;;
21162;SDS011;10739;52.198;20.908;2023-06-14T03:28:59;23.50;;;8.93;;
21162;SDS011;10739;52.198;20.908;2023-06-14T03:31:25;13.25;;;10.60;;
21162;SDS011;10739;52.198;20.908;2023-06-14T03:33:51;13.02;;;9.75;;
21162;SDS011;10739;52.198;20.908;2023-06-14T03:36:17;15.43;;;9.82;;
21162;SDS011;10739;52.198;20.908;2023-06-14T03:38:44;12.48;;;9.43;;
21162;SDS011;10739;52.198;20.908;2023-06-14T03:41:10;11.95;;;8.90;;
21162;SDS011;10739;52.198;20.908;2023-06-14T03:43:36;10.95;;;8.93;;
21162;SDS011;10739;52.198;20.908;2023-06-14T03:46:02;9.50;;;8.55;;
21162;SDS011;10739;52.198;20.908;2023-06-14T03:48:29;10.27;;;8.45;;
21162;SDS011;10739;52.198;20.908;2023-06-14T03:50:55;12.35;;;9.13;;
21162;SDS011;10739;52.198;20.908;2023-06-14T03:53:22;12.35;;;9.20;;
21162;SDS011;10739;52.198;20.908;2023-06-14T03:55:49;10.80;;;8.15;;
21162;SDS011;10739;52.198;20.908;2023-06-14T03:58:18;9.63;;;8.40;;
21162;SDS011;10739;52.198;20.908;2023-06-14T04:00:44;12.55;;;8.35;;
21162;SDS011;10739;52.198;20.908;2023-06-14T04:03:11;9.32;;;8.32;;
21162;SDS011;10739;52.198;20.908;2023-06-14T04:05:39;13.18;;;9.77;;
21162;SDS011;10739;52.198;20.908;2023-06-14T04:08:09;12.55;;;9.68;;
21162;SDS011;10739;52.198;20.908;2023-06-14T04:10:36;10.60;;;9.50;;
21162;SDS011;10739;52.198;20.908;2023-06-14T04:13:02;14.13;;;9.75;;
21162;SDS011;10739;52.198;20.908;2023-06-14T04:15:30;15.10;;;10.45;;
21162;SDS011;10739;52.198;20.908;2023-06-14T04:17:56;13.38;;;10.52;;
21162;SDS011;10739;52.198;20.908;2023-06-14T04:20:23;16.55;;;11.38;;
21162;SDS011;10739;52.198;20.908;2023-06-14T04:22:50;14.80;;;11.88;;
21162;SDS011;10739;52.198;20.908;2023-06-14T04:25:18;12.63;;;11.02;;
21162;SDS011;10739;52.198;20.908;2023-06-14T04:27:44;14.57;;;10.82;;
21162;SDS011;10739;52.198;20.908;2023-06-14T04:30:12;13.20;;;11.48;;
21162;SDS011;10739;52.198;20.908;2023-06-14T04:32:39;15.57;;;11.43;;
21162;SDS011;10739;52.198;20.908;2023-06-14T04:35:06;14.38;;;12.15;;
21162;SDS011;10739;52.198;20.908;2023-06-14T04:37:33;12.63;;;10.85;;
21162;SDS011;10739;52.198;20.908;2023-06-14T04:39:59;13.75;;;11.23;;
21162;SDS011;10739;52.198;20.908;2023-06-14T04:42:26;13.07;;;10.45;;
21162;SDS011;10739;52.198;20.908;2023-06-14T04:44:55;12.60;;;11.23;;
21162;SDS011;10739;52.198;20.908;2023-06-14T04:47:23;13.02;;;10.23;;
21162;SDS011;10739;52.198;20.908;2023-06-14T04:49:54;14.18;;;11.00;;
21162;SDS011;10739;52.198;20.908;2023-06-14T04:52:23;15.27;;;11.00;;
21162;SDS011;10739;52.198;20.908;2023-06-14T04:54:52;14.60;;;10.05;;
21162;SDS011;10739;52.198;20.908;2023-06-14T04:57:19;15.48;;;11.00;;
21162;SDS011;10739;52.198;20.908;2023-06-14T04:59:47;14.00;;;10.05;;
21162;SDS011;10739;52.198;20.908;2023-06-14T05:02:23;15.50;;;10.00;;
21162;SDS011;10739;52.198;20.908;2023-06-14T05:04:51;14.57;;;10.15;;
21162;SDS011;10739;52.198;20.908;2023-06-14T05:07:17;18.85;;;9.90;;
21162;SDS011;10739;52.198;20.908;2023-06-14T05:09:44;12.13;;;10.32;;
21162;SDS011;10739;52.198;20.908;2023-06-14T05:12:11;14.63;;;10.02;;
21162;SDS011;10739;52.198;20.908;2023-06-14T05:14:38;11.00;;;9.38;;
21162;SDS011;10739;52.198;20.908;2023-06-14T05:17:04;10.15;;;9.00;;
21162;SDS011;10739;52.198;20.908;2023-06-14T05:19:31;12.85;;;9.48;;
21162;SDS011;10739;52.198;20.908;2023-06-14T05:21:57;10.52;;;9.05;;
21162;SDS011;10739;52.198;20.908;2023-06-14T05:24:23;10.93;;;8.93;;
21162;SDS011;10739;52.198;20.908;2023-06-14T05:26:50;10.05;;;8.52;;
21162;SDS011;10739;52.198;20.908;2023-06-14T05:29:16;16.77;;;10.20;;
21162;SDS011;10739;52.198;20.908;2023-06-14T05:31:43;12.13;;;9.10;;
21162;SDS011;10739;52.198;20.908;2023-06-14T05:34:09;10.88;;;8.55;;
21162;SDS011;10739;52.198;20.908;2023-06-14T05:36:36;12.35;;;8.40;;
21162;SDS011;10739;52.198;20.908;2023-06-14T05:39:02;17.15;;;8.52;;
21162;SDS011;10739;52.198;20.908;2023-06-14T05:41:29;13.40;;;8.38;;
21162;SDS011;10739;52.198;20.908;2023-06-14T05:43:56;12.73;;;8.85;;
21162;SDS011;10739;52.198;20.908;2023-06-14T05:46:23;15.07;;;8.95;;
21162;SDS011;10739;52.198;20.908;2023-06-14T05:48:51;10.93;;;8.32;;
21162;SDS011;10739;52.198;20.908;2023-06-14T05:51:18;12.07;;;9.13;;
21162;SDS011;10739;52.198;20.908;2023-06-14T05:53:45;11.50;;;9.05;;
21162;SDS011;10739;52.198;20.908;2023-06-14T05:56:14;16.02;;;9.40;;
21162;SDS011;10739;52.198;20.908;2023-06-14T05:58:43;19.70;;;9.43;;
21162;SDS011;10739;52.198;20.908;2023-06-14T06:01:10;11.25;;;9.07;;
21162;SDS011;10739;52.198;20.908;2023-06-14T06:03:37;12.77;;;8.85;;
21162;SDS011;10739;52.198;20.908;2023-06-14T06:06:03;10.73;;;8.50;;
21162;SDS011;10739;52.198;20.908;2023-06-14T06:08:29;10.90;;;8.48;;
21162;SDS011;10739;52.198;20.908;2023-06-14T06:10:56;16.85;;;8.90;;
21162;SDS011;10739;52.198;20.908;2023-06-14T06:13:23;14.80;;;8.88;;
21162;SDS011;10739;52.198;20.908;2023-06-14T06:15:49;15.15;;;8.30;;
21162;SDS011;10739;52.198;20.908;2023-06-14T06:18:16;11.00;;;7.80;;
21162;SDS011;10739;52.198;20.908;2023-06-14T06:20:42;14.43;;;8.18;;
21162;SDS011;10739;52.198;20.908;2023-06-14T06:23:09;9.57;;;7.38;;
21162;SDS011;10739;52.198;20.908;2023-06-14T06:25:35;15.32;;;7.72;;
21162;SDS011;10739;52.198;20.908;2023-06-14T06:28:02;10.82;;;7.53;;
21162;SDS011;10739;52.198;20.908;2023-06-14T06:30:30;9.65;;;7.28;;
21162;SDS011;10739;52.198;20.908;2023-06-14T06:32:56;9.35;;;6.95;;
21162;SDS011;10739;52.198;20.908;2023-06-14T06:35:23;10.77;;;7.47;;
21162;SDS011;10739;52.198;20.908;2023-06-14T06:37:50;12.70;;;6.78;;
21162;SDS011;10739;52.198;20.908;2023-06-14T06:40:16;15.38;;;6.90;;
21162;SDS011;10739;52.198;20.908;2023-06-14T06:42:42;11.82;;;6.65;;
21162;SDS011;10739;52.198;20.908;2023-06-14T06:45:09;13.63;;;7.07;;
21162;SDS011;10739;52.198;20.908;2023-06-14T06:47:35;9.52;;;6.70;;
21162;SDS011;10739;52.198;20.908;2023-06-14T06:50:02;9.07;;;6.28;;
21162;SDS011;10739;52.198;20.908;2023-06-14T06:52:28;8.75;;;6.80;;
21162;SDS011;10739;52.198;20.908;2023-06-14T06:54:55;10.18;;;6.40;;
21162;SDS011;10739;52.198;20.908;2023-06-14T06:57:22;12.55;;;6.70;;
21162;SDS011;10739;52.198;20.908;2023-06-14T06:59:49;9.68;;;6.13;;
21162;SDS011;10739;52.198;20.908;2023-06-14T07:02:16;14.68;;;6.93;;
21162;SDS011;10739;52.198;20.908;2023-06-14T07:04:42;10.13;;;5.80;;
21162;SDS011;10739;52.198;20.908;2023-06-14T07:07:08;21.08;;;6.07;;
21162;SDS011;10739;52.198;20.908;2023-06-14T07:09:35;17.63;;;6.05;;
21162;SDS011;10739;52.198;20.908;2023-06-14T07:12:01;8.90;;;5.63;;
21162;SDS011;10739;52.198;20.908;2023-06-14T07:14:28;12.07;;;6.43;;
21162;SDS011;10739;52.198;20.908;2023-06-14T07:16:55;9.18;;;5.80;;
21162;SDS011;10739;52.198;20.908;2023-06-14T07:19:21;8.63;;;6.20;;
21162;SDS011;10739;52.198;20.908;2023-06-14T07:21:48;11.77;;;6.38;;
21162;SDS011;10739;52.198;20.908;2023-06-14T07:24:14;11.15;;;6.53;;
21162;SDS011;10739;52.198;20.908;2023-06-14T07:26:40;9.68;;;6.85;;
21162;SDS011;10739;52.198;20.908;2023-06-14T07:29:07;11.70;;;6.53;;
21162;SDS011;10739;52.198;20.908;2023-06-14T07:31:33;8.55;;;6.18;;
21162;SDS011;10739;52.198;20.908;2023-06-14T07:33:59;16.85;;;5.63;;
21162;SDS011;10739;52.198;20.908;2023-06-14T07:36:25;16.15;;;6.22;;
21162;SDS011;10739;52.198;20.908;2023-06-14T07:38:51;12.45;;;6.88;;
21162;SDS011;10739;52.198;20.908;2023-06-14T07:41:18;14.07;;;6.13;;
21162;SDS011;10739;52.198;20.908;2023-06-14T07:43:44;9.30;;;5.90;;
21162;SDS011;10739;52.198;20.908;2023-06-14T07:46:10;9.80;;;5.93;;
21162;SDS011;10739;52.198;20.908;2023-06-14T07:48:37;13.43;;;6.18;;
21162;SDS011;10739;52.198;20.908;2023-06-14T07:51:03;13.90;;;6.72;;
21162;SDS011;10739;52.198;20.908;2023-06-14T07:53:37;10.85;;;6.03;;
21162;SDS011;10739;52.198;20.908;2023-06-14T07:56:04;13.52;;;5.90;;
21162;SDS011;10739;52.198;20.908;2023-06-14T07:58:30;9.88;;;5.90;;
21162;SDS011;10739;52.198;20.908;2023-06-14T08:00:57;10.93;;;6.05;;
21162;SDS011;10739;52.198;20.908;2023-06-14T08:03:23;12.80;;;5.32;;
21162;SDS011;10739;52.198;20.908;2023-06-14T08:05:49;15.65;;;5.38;;
21162;SDS011;10739;52.198;20.908;2023-06-14T08:08:16;10.38;;;5.05;;
21162;SDS011;10739;52.198;20.908;2023-06-14T08:10:42;9.00;;;4.97;;
21162;SDS011;10739;52.198;20.908;2023-06-14T08:13:09;16.40;;;6.03;;
21162;SDS011;10739;52.198;20.908;2023-06-14T08:15:36;11.43;;;5.30;;
21162;SDS011;10739;52.198;20.908;2023-06-14T08:18:02;9.02;;;4.88;;
21162;SDS011;10739;52.198;20.908;2023-06-14T08:20:28;11.85;;;5.18;;
21162;SDS011;10739;52.198;20.908;2023-06-14T08:22:56;8.15;;;6.15;;
21162;SDS011;10739;52.198;20.908;2023-06-14T08:25:23;13.50;;;5.80;;
21162;SDS011;10739;52.198;20.908;2023-06-14T08:27:50;13.73;;;6.38;;
21162;SDS011;10739;52.198;20.908;2023-06-14T08:30:16;11.07;;;5.30;;
21162;SDS011;10739;52.198;20.908;2023-06-14T08:32:43;11.82;;;5.50;;
21162;SDS011;10739;52.198;20.908;2023-06-14T08:35:09;8.52;;;4.18;;
21162;SDS011;10739;52.198;20.908;2023-06-14T08:37:39;8.75;;;4.60;;
21162;SDS011;10739;52.198;20.908;2023-06-14T08:40:22;10.63;;;4.88;;
21162;SDS011;10739;52.198;20.908;2023-06-14T08:42:52;11.30;;;4.88;;
21162;SDS011;10739;52.198;20.908;2023-06-14T08:45:23;12.30;;;5.28;;
21162;SDS011;10739;52.198;20.908;2023-06-14T08:50:23;8.32;;;4.75;;
21162;SDS011;10739;52.198;20.908;2023-06-14T08:52:53;13.05;;;5.18;;
21162;SDS011;10739;52.198;20.908;2023-06-14T08:55:23;6.75;;;4.60;;
21162;SDS011;10739;52.198;20.908;2023-06-14T08:57:56;9.15;;;4.65;;
21162;SDS011;10739;52.198;20.908;2023-06-14T09:00:24;7.30;;;5.65;;
21162;SDS011;10739;52.198;20.908;2023-06-14T09:02:55;10.07;;;5.40;;
21162;SDS011;10739;52.198;20.908;2023-06-14T09:05:24;16.67;;;7.05;;
21162;SDS011;10739;52.198;20.908;2023-06-14T09:07:51;9.88;;;5.95;;
21162;SDS011;10739;52.198;20.908;2023-06-14T09:10:21;9.80;;;5.38;;
21162;SDS011;10739;52.198;20.908;2023-06-14T09:12:48;12.95;;;6.32;;
21162;SDS011;10739;52.198;20.908;2023-06-14T09:15:15;9.48;;;6.53;;
21162;SDS011;10739;52.198;20.908;2023-06-14T09:17:42;10.90;;;5.60;;
21162;SDS011;10739;52.198;20.908;2023-06-14T09:20:12;7.93;;;5.88;;
21162;SDS011;10739;52.198;20.908;2023-06-14T09:22:42;10.07;;;5.68;;
21162;SDS011;10739;52.198;20.908;2023-06-14T09:25:09;9.90;;;6.15;;
21162;SDS011;10739;52.198;20.908;2023-06-14T09:27:39;12.88;;;6.05;;
21162;SDS011;10739;52.198;20.908;2023-06-14T09:30:10;19.63;;;5.95;;
21162;SDS011;10739;52.198;20.908;2023-06-14T09:32:38;8.52;;;5.68;;
21162;SDS011;10739;52.198;20.908;2023-06-14T09:35:06;16.67;;;5.38;;
21162;SDS011;10739;52.198;20.908;2023-06-14T09:37:33;12.52;;;5.85;;
21162;SDS011;10739;52.198;20.908;2023-06-14T09:40:04;8.02;;;5.50;;
21162;SDS011;10739;52.198;20.908;2023-06-14T09:42:34;10.65;;;5.95;;
21162;SDS011;10739;52.198;20.908;2023-06-14T09:45:02;21.25;;;5.95;;
21162;SDS011;10739;52.198;20.908;2023-06-14T09:47:32;9.02;;;6.03;;
21162;SDS011;10739;52.198;20.908;2023-06-14T09:49:58;11.20;;;5.93;;
21162;SDS011;10739;52.198;20.908;2023-06-14T09:52:25;12.07;;;5.75;;
21162;SDS011;10739;52.198;20.908;2023-06-14T09:54:58;8.50;;;6.38;;
21162;SDS011;10739;52.198;20.908;2023-06-14T09:57:29;11.70;;;6.20;;
21162;SDS011;10739;52.198;20.908;2023-06-14T09:59:58;11.07;;;7.05;;
21162;SDS011;10739;52.198;20.908;2023-06-14T10:02:34;12.73;;;7.40;;
21162;SDS011;10739;52.198;20.908;2023-06-14T10:05:04;16.02;;;6.05;;
21162;SDS011;10739;52.198;20.908;2023-06-14T10:07:42;13.65;;;6.90;;
21162;SDS011;10739;52.198;20.908;2023-06-14T10:10:17;13.95;;;6.68;;
21162;SDS011;10739;52.198;20.908;2023-06-14T10:12:44;18.58;;;5.70;;
21162;SDS011;10739;52.198;20.908;2023-06-14T10:15:15;8.73;;;4.50;;
21162;SDS011;10739;52.198;20.908;2023-06-14T10:18:19;9.68;;;4.40;;
21162;SDS011;10739;52.198;20.908;2023-06-14T10:23:54;10.05;;;4.13;;
21162;SDS011;10739;52.198;20.908;2023-06-14T10:26:28;13.90;;;4.55;;
21162;SDS011;10739;52.198;20.908;2023-06-14T10:29:08;7.65;;;4.07;;
21162;SDS011;10739;52.198;20.908;2023-06-14T10:31:44;10.73;;;4.78;;
21162;SDS011;10739;52.198;20.908;2023-06-14T10:34:23;10.43;;;4.63;;
21162;SDS011;10739;52.198;20.908;2023-06-14T10:37:01;6.35;;;4.43;;
21162;SDS011;10739;52.198;20.908;2023-06-14T10:39:30;13.25;;;4.63;;
21162;SDS011;10739;52.198;20.908;2023-06-14T10:42:07;8.68;;;4.38;;
21162;SDS011;10739;52.198;20.908;2023-06-14T10:44:54;6.55;;;4.25;;
21162;SDS011;10739;52.198;20.908;2023-06-14T10:52:28;7.00;;;3.30;;
21162;SDS011;10739;52.198;20.908;2023-06-14T10:54:59;13.77;;;3.58;;
21162;SDS011;10739;52.198;20.908;2023-06-14T10:57:45;9.00;;;4.18;;
21162;SDS011;10739;52.198;20.908;2023-06-14T11:00:25;9.50;;;3.83;;
21162;SDS011;10739;52.198;20.908;2023-06-14T11:03:22;10.35;;;4.43;;
21162;SDS011;10739;52.198;20.908;2023-06-14T11:06:22;5.90;;;3.97;;
21162;SDS011;10739;52.198;20.908;2023-06-14T11:11:44;5.10;;;3.78;;
21162;SDS011;10739;52.198;20.908;2023-06-14T11:14:13;14.25;;;3.50;;
21162;SDS011;10739;52.198;20.908;2023-06-14T11:16:40;7.03;;;3.47;;
21162;SDS011;10739;52.198;20.908;2023-06-14T11:19:07;7.80;;;3.58;;
21162;SDS011;10739;52.198;20.908;2023-06-14T11:21:33;9.65;;;3.78;;
21162;SDS011;10739;52.198;20.908;2023-06-14T11:24:09;5.63;;;3.92;;
21162;SDS011;10739;52.198;20.908;2023-06-14T11:26:41;9.52;;;3.30;;
21162;SDS011;10739;52.198;20.908;2023-06-14T11:29:08;9.32;;;3.50;;
21162;SDS011;10739;52.198;20.908;2023-06-14T11:31:35;11.43;;;4.10;;
21162;SDS011;10739;52.198;20.908;2023-06-14T11:34:01;7.47;;;3.47;;
21162;SDS011;10739;52.198;20.908;2023-06-14T11:36:29;7.28;;;3.85;;
21162;SDS011;10739;52.198;20.908;2023-06-14T11:39:03;7.97;;;3.67;;
21162;SDS011;10739;52.198;20.908;2023-06-14T11:41:43;5.65;;;3.83;;
21162;SDS011;10739;52.198;20.908;2023-06-14T11:44:11;13.23;;;3.97;;
21162;SDS011;10739;52.198;20.908;2023-06-14T11:46:38;5.63;;;3.47;;
21162;SDS011;10739;52.198;20.908;2023-06-14T11:49:06;10.32;;;3.38;;
21162;SDS011;10739;52.198;20.908;2023-06-14T11:51:34;5.55;;;3.30;;
21162;SDS011;10739;52.198;20.908;2023-06-14T11:54:02;8.20;;;3.95;;
21162;SDS011;10739;52.198;20.908;2023-06-14T11:56:31;8.43;;;3.80;;
21162;SDS011;10739;52.198;20.908;2023-06-14T11:58:58;9.13;;;4.03;;
21162;SDS011;10739;52.198;20.908;2023-06-14T12:01:25;7.10;;;2.92;;
21162;SDS011;10739;52.198;20.908;2023-06-14T12:03:52;8.00;;;3.45;;
21162;SDS011;10739;52.198;20.908;2023-06-14T12:06:27;3.70;;;2.80;;
21162;SDS011;10739;52.198;20.908;2023-06-14T12:08:59;7.20;;;3.33;;
21162;SDS011;10739;52.198;20.908;2023-06-14T12:11:34;6.25;;;3.38;;
21162;SDS011;10739;52.198;20.908;2023-06-14T12:14:03;7.18;;;3.33;;
21162;SDS011;10739;52.198;20.908;2023-06-14T12:16:34;5.18;;;3.15;;
21162;SDS011;10739;52.198;20.908;2023-06-14T12:19:15;10.60;;;3.67;;
21162;SDS011;10739;52.198;20.908;2023-06-14T12:21:43;4.25;;;3.28;;
21162;SDS011;10739;52.198;20.908;2023-06-14T12:24:14;3.92;;;3.10;;
21162;SDS011;10739;52.198;20.908;2023-06-14T12:26:40;3.45;;;3.03;;
21162;SDS011;10739;52.198;20.908;2023-06-14T12:29:07;10.25;;;2.50;;
21162;SDS011;10739;52.198;20.908;2023-06-14T12:31:36;4.25;;;2.72;;
21162;SDS011;10739;52.198;20.908;2023-06-14T12:34:03;5.00;;;2.60;;
21162;SDS011;10739;52.198;20.908;2023-06-14T12:36:29;3.38;;;3.08;;
21162;SDS011;10739;52.198;20.908;2023-06-14T12:38:56;5.25;;;2.45;;
21162;SDS011;10739;52.198;20.908;2023-06-14T12:41:23;6.30;;;2.55;;
21162;SDS011;10739;52.198;20.908;2023-06-14T12:43:49;9.77;;;2.80;;
21162;SDS011;10739;52.198;20.908;2023-06-14T12:46:16;6.05;;;2.60;;
21162;SDS011;10739;52.198;20.908;2023-06-14T12:48:42;11.30;;;3.10;;
21162;SDS011;10739;52.198;20.908;2023-06-14T12:51:09;6.72;;;3.00;;
21162;SDS011;10739;52.198;20.908;2023-06-14T12:53:35;4.55;;;2.60;;
21162;SDS011;10739;52.198;20.908;2023-06-14T12:56:01;5.82;;;3.20;;
21162;SDS011;10739;52.198;20.908;2023-06-14T12:58:27;8.88;;;3.10;;
21162;SDS011;10739;52.198;20.908;2023-06-14T13:00:54;6.82;;;3.30;;
21162;SDS011;10739;52.198;20.908;2023-06-14T13:03:20;4.43;;;3.30;;
21162;SDS011;10739;52.198;20.908;2023-06-14T13:05:46;7.43;;;3.20;;
21162;SDS011;10739;52.198;20.908;2023-06-14T13:08:13;5.18;;;2.97;;
21162;SDS011;10739;52.198;20.908;2023-06-14T13:10:39;3.83;;;2.95;;
21162;SDS011;10739;52.198;20.908;2023-06-14T13:13:05;5.13;;;2.97;;
21162;SDS011;10739;52.198;20.908;2023-06-14T13:15:32;9.18;;;3.10;;
21162;SDS011;10739;52.198;20.908;2023-06-14T13:17:59;5.03;;;2.60;;
21162;SDS011;10739;52.198;20.908;2023-06-14T13:20:26;9.35;;;2.60;;
21162;SDS011;10739;52.198;20.908;2023-06-14T13:22:52;5.97;;;2.50;;
21162;SDS011;10739;52.198;20.908;2023-06-14T13:25:18;6.95;;;2.92;;
21162;SDS011;10739;52.198;20.908;2023-06-14T13:27:44;4.40;;;2.88;;
21162;SDS011;10739;52.198;20.908;2023-06-14T13:30:11;6.75;;;2.40;;
21162;SDS011;10739;52.198;20.908;2023-06-14T13:32:38;9.90;;;2.22;;
21162;SDS011;10739;52.198;20.908;2023-06-14T13:35:04;4.63;;;2.20;;
21162;SDS011;10739;52.198;20.908;2023-06-14T13:37:30;3.40;;;2.40;;
21162;SDS011;10739;52.198;20.908;2023-06-14T13:39:57;5.13;;;2.10;;
21162;SDS011;10739;52.198;20.908;2023-06-14T13:42:23;3.60;;;2.65;;
21162;SDS011;10739;52.198;20.908;2023-06-14T13:44:49;4.90;;;2.80;;
21162;SDS011;10739;52.198;20.908;2023-06-14T13:47:17;5.97;;;2.50;;
21162;SDS011;10739;52.198;20.908;2023-06-14T13:49:43;3.20;;;2.33;;
21162;SDS011;10739;52.198;20.908;2023-06-14T13:52:09;5.95;;;2.67;;
21162;SDS011;10739;52.198;20.908;2023-06-14T13:54:36;8.00;;;2.88;;
21162;SDS011;10739;52.198;20.908;2023-06-14T13:57:03;4.15;;;2.70;;
21162;SDS011;10739;52.198;20.908;2023-06-14T13:59:29;4.28;;;2.53;;
21162;SDS011;10739;52.198;20.908;2023-06-14T14:01:56;8.52;;;2.92;;
21162;SDS011;10739;52.198;20.908;2023-06-14T14:04:22;5.82;;;3.20;;
21162;SDS011;10739;52.198;20.908;2023-06-14T14:06:48;7.85;;;3.20;;
21162;SDS011;10739;52.198;20.908;2023-06-14T14:09:15;10.30;;;3.33;;
21162;SDS011;10739;52.198;20.908;2023-06-14T14:11:41;10.70;;;3.00;;
21162;SDS011;10739;52.198;20.908;2023-06-14T14:14:08;9.52;;;3.17;;
21162;SDS011;10739;52.198;20.908;2023-06-14T14:16:35;3.33;;;2.97;;
21162;SDS011;10739;52.198;20.908;2023-06-14T14:19:02;7.25;;;3.20;;
21162;SDS011;10739;52.198;20.908;2023-06-14T14:21:29;4.35;;;3.03;;
21162;SDS011;10739;52.198;20.908;2023-06-14T14:23:55;5.00;;;3.60;;
21162;SDS011;10739;52.198;20.908;2023-06-14T14:26:22;13.50;;;3.40;;
21162;SDS011;10739;52.198;20.908;2023-06-14T14:28:49;6.50;;;3.60;;
21162;SDS011;10739;52.198;20.908;2023-06-14T14:31:17;6.32;;;3.53;;
21162;SDS011;10739;52.198;20.908;2023-06-14T14:33:47;7.40;;;3.20;;
21162;SDS011;10739;52.198;20.908;2023-06-14T14:36:13;14.52;;;3.25;;
21162;SDS011;10739;52.198;20.908;2023-06-14T14:38:40;5.25;;;2.80;;
21162;SDS011;10739;52.198;20.908;2023-06-14T14:41:06;13.75;;;3.30;;
21162;SDS011;10739;52.198;20.908;2023-06-14T14:43:33;8.10;;;2.97;;
21162;SDS011;10739;52.198;20.908;2023-06-14T14:45:59;4.18;;;2.90;;
21162;SDS011;10739;52.198;20.908;2023-06-14T14:48:25;5.97;;;3.08;;